TFM - Tactical Decision Aid
ID: Runway Winds: CIG/VIS Threshold:

KPIT - Pittsburgh Intl, PA, US

Updated at: 2036 UTC 17 Jun 2019
Latest TAF at: 2027 UTC 17 Jun 2019

TAF Board

Time1951Z 17/21Z 17/22Z 17/23Z 18/00Z 18/01Z 18/02Z 18/03Z 18/04Z 18/05Z 18/06Z 18/07Z 18/08Z 18/09Z>>
Type OBS PRVL PRVL PRVL PRVL PRVL PRVL PRVL PRVL PRVL PRVL PRVL PRVL PRVL
VIS 10 >6 >6 >6 >6 >6 >6 6 6 6 6 5 5 5
CIG 140 150 150 150 150 150 150 30 30 30 30 8 8 8
Cover OVC BKN BKN BKN BKN BKN BKN OVC OVC OVC OVC OVC OVC OVC
FltCat VFR VFR VFR VFR VFR VFR VFR MVFR MVFR MVFR MVFR IFR IFR IFR
WX -- VCSH VCSH VCSH VCSH VCSH VCSH -SHRA BR -SHRA BR -SHRA BR -SHRA BR BR VCSH BR VCSH BR VCSH
WDir 210 230 230 230 230 230 230 250 250 250 250 240 240 240
WSpd 5 8 8 8 8 8 8 4 4 4 4 4 4 4
WGst -- -- -- -- -- -- -- -- -- -- -- -- -- --

TDA Impact Legend

  None Marginal Slight Moderate High
Visibility (sm) >5 3≤X≤5 1≤X<3 0.5≤X<1 <0.5
Ceiling (100 ft) >30 10≤X≤30 4≤X<10 2≤X<4 <2
Wind Speed (kt) <15 15≤X<25 25≤X<30 ≥30
Wind Gust (kt) <15 15≤X<25 25≤X<35 ≥35
Weather No Wx Reported VCTS -TS,-FZRA TS,FZRA +TS,+FZRA
TAF
KPIT 172027Z 1720/1824 23008KT P6SM VCSH SCT025 BKN150
  FM180300 25004KT 6SM -SHRA BR OVC030
  FM180700 24004KT 5SM BR VCSH OVC008
  FM181300 26005KT P6SM BKN015
  FM181700 25004KT P6SM VCTS BKN020CB


METAR
KPIT 171951Z 21005KT 10SM SCT024 BKN140 OVC230 24/19 A3000 RMK AO2 SLP157 T02390189
KPIT 171851Z 24007KT 10SM BKN015 BKN050 OVC130 23/19 A3001 RMK AO2 SLP163 T02280189 $
KPIT 171840Z 22006KT 10SM BKN015 BKN050 OVC130 23/19 A3001 RMK AO2 T02280194 $
KPIT 171806Z VRB06KT 10SM BKN014 OVC120 22/19 A3002 RMK AO2 T02170189 $
KPIT 171751Z 24006KT 10SM SCT015 SCT046 OVC120 22/19 A3002 RMK AO2 SLP167 60002 T02170194 10217 20189 50007 $
KPIT 171740Z 25006KT 10SM FEW015 SCT046 OVC120 21/19 A3002 RMK AO2 T02110189 $

Radar Display
Forecast Discussion